createdAt,value
2023-04-08T00:00:30.817Z,13.23
2023-04-08T00:02:57.757Z,11.23
2023-04-08T00:05:24.778Z,11.00
2023-04-08T00:07:51.644Z,11.98
2023-04-08T00:10:18.792Z,11.15
2023-04-08T00:12:48.077Z,11.60
2023-04-08T00:15:14.984Z,10.15
2023-04-08T00:17:42.232Z,11.57
2023-04-08T00:20:09.556Z,12.43
2023-04-08T00:22:36.757Z,12.05
2023-04-08T00:25:06.657Z,10.82
2023-04-08T00:27:33.853Z,12.13
2023-04-08T00:30:01.682Z,17.48
2023-04-08T00:32:29.333Z,19.15
2023-04-08T00:34:56.514Z,13.52
2023-04-08T00:37:23.344Z,10.52
2023-04-08T00:39:50.481Z,13.48
2023-04-08T00:42:17.645Z,12.77
2023-04-08T00:44:44.526Z,13.23
2023-04-08T00:47:15.580Z,14.40
2023-04-08T00:49:43.949Z,13.23
2023-04-08T00:52:11.054Z,13.80
2023-04-08T00:54:38.401Z,16.02
2023-04-08T00:57:06.412Z,14.45
2023-04-08T00:59:33.733Z,15.15
2023-04-08T01:02:19.011Z,13.77
2023-04-08T01:05:05.904Z,14.77
2023-04-08T01:07:44.532Z,12.20
2023-04-08T01:10:26.012Z,12.55
2023-04-08T01:12:58.278Z,12.13
2023-04-08T01:15:26.728Z,13.07
2023-04-08T01:17:56.298Z,14.80
2023-04-08T01:20:25.807Z,17.23
2023-04-08T01:23:17.590Z,13.63
2023-04-08T01:25:51.547Z,17.67
2023-04-08T01:28:21.102Z,13.43
2023-04-08T01:30:49.769Z,15.77
2023-04-08T01:33:21.482Z,16.83
2023-04-08T01:35:52.456Z,15.45
2023-04-08T01:38:23.044Z,14.38
2023-04-08T01:40:51.113Z,13.07
2023-04-08T01:43:18.957Z,13.98
2023-04-08T01:45:47.695Z,13.00
2023-04-08T01:48:16.399Z,12.82
2023-04-08T01:50:47.975Z,13.02
2023-04-08T01:53:14.976Z,14.75
2023-04-08T01:55:43.273Z,12.93
2023-04-08T01:58:16.334Z,12.77
2023-04-08T02:00:43.587Z,13.95
2023-04-08T02:03:13.475Z,14.98
2023-04-08T02:05:40.963Z,17.83
2023-04-08T02:08:07.739Z,20.23
2023-04-08T02:10:35.017Z,16.60
2023-04-08T02:13:03.358Z,18.45
2023-04-08T02:15:37.752Z,18.15
2023-04-08T02:18:11.424Z,16.42
2023-04-08T02:20:43.308Z,16.90
2023-04-08T02:23:29.374Z,17.17
2023-04-08T02:25:57.008Z,14.73
2023-04-08T02:28:26.842Z,15.98
2023-04-08T02:30:55.704Z,16.25
2023-04-08T02:33:23.244Z,13.65
2023-04-08T02:35:52.059Z,13.52
2023-04-08T02:38:19.061Z,14.50
2023-04-08T02:40:45.930Z,16.05
2023-04-08T02:43:12.668Z,13.57
2023-04-08T02:45:42.719Z,13.38
2023-04-08T02:48:09.850Z,14.13
2023-04-08T02:50:37.012Z,15.00
2023-04-08T02:53:04.020Z,13.35
2023-04-08T02:55:30.953Z,17.10
2023-04-08T02:57:57.718Z,13.68
2023-04-08T03:00:24.532Z,14.75
2023-04-08T03:02:51.593Z,13.45
2023-04-08T03:05:18.482Z,15.57
2023-04-08T03:07:45.315Z,14.13
2023-04-08T03:10:12.128Z,15.07
2023-04-08T03:12:39.473Z,13.63
2023-04-08T03:15:07.314Z,13.50
2023-04-08T03:17:34.732Z,13.27
2023-04-08T03:20:04.840Z,13.43
2023-04-08T03:22:32.180Z,12.48
2023-04-08T03:24:58.943Z,12.82
2023-04-08T03:27:26.237Z,14.55
2023-04-08T03:29:53.145Z,14.43
2023-04-08T03:32:20.285Z,15.07
2023-04-08T03:34:47.076Z,12.70
2023-04-08T03:37:13.895Z,15.55
2023-04-08T03:39:40.657Z,13.05
2023-04-08T03:42:08.249Z,15.80
2023-04-08T03:44:34.970Z,11.55
2023-04-08T03:47:01.746Z,14.32
2023-04-08T03:49:28.967Z,13.85
2023-04-08T03:51:55.812Z,14.52
2023-04-08T03:54:22.556Z,14.13
2023-04-08T03:56:50.808Z,12.98
2023-04-08T03:59:17.523Z,12.80
2023-04-08T04:01:45.330Z,14.13
2023-04-08T04:04:12.316Z,13.90
2023-04-08T04:06:39.245Z,13.18
2023-04-08T04:09:05.947Z,13.10
2023-04-08T04:11:34.663Z,13.80
2023-04-08T04:14:01.770Z,12.90
2023-04-08T04:16:30.915Z,12.43
2023-04-08T04:18:59.571Z,12.90
2023-04-08T04:21:27.103Z,12.05
2023-04-08T04:23:54.715Z,13.70
2023-04-08T04:26:21.567Z,13.18
2023-04-08T04:28:48.931Z,12.88
2023-04-08T04:31:23.875Z,11.48
2023-04-08T04:33:50.706Z,11.50
2023-04-08T04:36:17.598Z,11.52
2023-04-08T04:38:45.588Z,12.05
2023-04-08T04:41:12.736Z,14.45
2023-04-08T04:43:39.534Z,11.50
2023-04-08T04:46:08.948Z,11.52
2023-04-08T04:48:36.328Z,12.43
2023-04-08T04:51:03.380Z,11.65
2023-04-08T04:53:31.449Z,14.32
2023-04-08T04:55:58.614Z,12.95
2023-04-08T04:58:25.448Z,12.82
2023-04-08T05:00:52.385Z,12.80
2023-04-08T05:03:19.322Z,14.25
2023-04-08T05:05:51.552Z,13.73
2023-04-08T05:08:18.411Z,15.15
2023-04-08T05:10:45.840Z,12.30
2023-04-08T05:13:12.749Z,14.63
2023-04-08T05:15:39.473Z,14.65
2023-04-08T05:18:06.616Z,14.13
2023-04-08T05:20:33.402Z,13.88
2023-04-08T05:23:00.152Z,15.20
2023-04-08T05:25:26.894Z,14.50
2023-04-08T05:27:53.672Z,18.77
2023-04-08T05:30:20.874Z,14.45
2023-04-08T05:32:47.913Z,15.65
2023-04-08T05:35:14.807Z,15.95
2023-04-08T05:37:41.816Z,15.30
2023-04-08T05:40:09.000Z,14.50
2023-04-08T05:42:36.007Z,15.02
2023-04-08T05:45:02.891Z,14.75
2023-04-08T05:47:30.096Z,15.02
2023-04-08T05:49:57.002Z,15.75
2023-04-08T05:52:23.865Z,14.48
2023-04-08T05:54:50.668Z,17.35
2023-04-08T05:57:17.861Z,15.55
2023-04-08T05:59:44.605Z,15.15
2023-04-08T06:02:11.543Z,15.10
2023-04-08T06:04:38.460Z,15.43
2023-04-08T06:07:06.482Z,13.65
2023-04-08T06:09:36.549Z,14.13
2023-04-08T06:12:03.545Z,15.10
2023-04-08T06:14:30.870Z,13.88
2023-04-08T06:16:57.910Z,16.10
2023-04-08T06:19:25.298Z,16.45
2023-04-08T06:21:52.108Z,15.90
2023-04-08T06:24:18.812Z,16.65
2023-04-08T06:26:45.562Z,14.30
2023-04-08T06:29:12.273Z,17.02
2023-04-08T06:31:39.099Z,16.30
2023-04-08T06:34:06.169Z,14.55
2023-04-08T06:36:32.988Z,14.15
2023-04-08T06:39:00.400Z,14.90
2023-04-08T06:41:27.212Z,13.82
2023-04-08T06:43:53.949Z,15.30
2023-04-08T06:46:20.927Z,15.90
2023-04-08T06:48:48.507Z,15.65
2023-04-08T06:51:15.689Z,13.65
2023-04-08T06:53:42.450Z,14.38
2023-04-08T06:56:09.188Z,13.65
2023-04-08T06:58:35.953Z,12.48
2023-04-08T07:01:03.328Z,13.23
2023-04-08T07:03:30.735Z,13.60
2023-04-08T07:05:57.671Z,13.00
2023-04-08T07:08:24.452Z,16.20
2023-04-08T07:10:52.797Z,13.13
2023-04-08T07:13:19.584Z,12.57
2023-04-08T07:15:46.800Z,12.18
2023-04-08T07:18:13.546Z,12.65
2023-04-08T07:20:41.856Z,12.50
2023-04-08T07:23:08.705Z,13.75
2023-04-08T07:25:36.516Z,12.10
2023-04-08T07:28:03.464Z,13.38
2023-04-08T07:30:30.562Z,12.93
2023-04-08T07:32:59.324Z,14.93
2023-04-08T07:35:29.408Z,15.82
2023-04-08T07:37:59.671Z,12.88
2023-04-08T07:40:26.382Z,13.80
2023-04-08T07:42:53.112Z,12.95
2023-04-08T07:45:20.357Z,13.30
2023-04-08T07:47:47.324Z,12.00
2023-04-08T07:50:14.444Z,13.38
2023-04-08T07:52:41.192Z,12.75
2023-04-08T07:55:08.400Z,13.70
2023-04-08T07:57:35.924Z,11.23
2023-04-08T08:00:04.786Z,12.32
2023-04-08T08:02:32.025Z,11.93
2023-04-08T08:04:58.832Z,11.55
2023-04-08T08:07:25.820Z,11.40
2023-04-08T08:09:52.865Z,11.50
2023-04-08T08:12:19.653Z,13.23
2023-04-08T08:14:46.358Z,12.65
2023-04-08T08:17:13.108Z,12.98
2023-04-08T08:19:39.837Z,14.40
2023-04-08T08:22:06.648Z,12.55
2023-04-08T08:24:33.435Z,11.27
2023-04-08T08:27:01.166Z,12.23
2023-04-08T08:29:28.691Z,13.13
2023-04-08T08:31:55.406Z,11.52
2023-04-08T08:34:22.141Z,11.80
2023-04-08T08:36:50.315Z,11.38
2023-04-08T08:39:17.165Z,10.90
2023-04-08T08:41:44.082Z,13.07
2023-04-08T08:44:11.017Z,11.90
2023-04-08T08:46:41.255Z,12.20
2023-04-08T08:49:08.077Z,11.63
2023-04-08T08:51:34.884Z,12.60
2023-04-08T08:54:04.518Z,14.00
2023-04-08T08:56:34.028Z,11.48
2023-04-08T08:59:00.977Z,13.05
2023-04-08T09:01:33.089Z,12.65
2023-04-08T09:04:22.794Z,12.07
2023-04-08T09:07:04.688Z,12.07
2023-04-08T09:09:49.031Z,11.32
2023-04-08T09:12:17.018Z,12.98
2023-04-08T09:14:45.372Z,12.60
2023-04-08T09:17:12.353Z,11.10
2023-04-08T09:19:39.609Z,11.40
2023-04-08T09:22:10.975Z,11.15
2023-04-08T09:24:38.099Z,12.82
2023-04-08T09:27:05.800Z,10.75
2023-04-08T09:29:36.458Z,13.80
2023-04-08T09:32:08.727Z,11.18
2023-04-08T09:37:07.261Z,13.38
2023-04-08T09:39:36.133Z,12.43
2023-04-08T09:42:06.742Z,9.60
2023-04-08T09:44:36.061Z,8.85
2023-04-08T09:47:12.658Z,10.07
2023-04-08T09:49:46.887Z,9.77
2023-04-08T09:52:33.269Z,11.20
2023-04-08T09:55:08.317Z,9.35
2023-04-08T09:57:46.843Z,9.38
2023-04-08T10:00:17.660Z,8.45
2023-04-08T10:03:21.964Z,9.18
2023-04-08T10:05:50.326Z,9.38
2023-04-08T10:08:17.286Z,11.15
2023-04-08T10:10:46.172Z,8.13
2023-04-08T10:13:14.639Z,8.70
2023-04-08T10:15:43.057Z,9.88
2023-04-08T10:18:11.753Z,9.82
2023-04-08T10:20:38.759Z,7.63
2023-04-08T10:23:13.161Z,13.23
2023-04-08T10:25:48.211Z,10.45
2023-04-08T10:28:15.384Z,9.10
2023-04-08T10:30:47.199Z,10.23
2023-04-08T10:33:30.650Z,8.07
2023-04-08T10:36:02.970Z,9.38
2023-04-08T10:38:30.347Z,9.80
2023-04-08T10:40:57.108Z,10.23
2023-04-08T10:43:24.154Z,9.85
2023-04-08T10:45:53.954Z,8.88
2023-04-08T10:48:25.293Z,8.02
2023-04-08T10:50:55.972Z,8.00
2023-04-08T10:53:30.837Z,6.78
2023-04-08T10:56:08.634Z,7.55
2023-04-08T10:58:39.084Z,7.93
2023-04-08T11:01:08.929Z,7.20
2023-04-08T11:03:37.189Z,8.57
2023-04-08T11:06:04.585Z,7.80
2023-04-08T11:08:33.131Z,7.60
2023-04-08T11:11:04.000Z,7.18
2023-04-08T11:13:31.747Z,6.90
2023-04-08T11:15:59.915Z,7.22
2023-04-08T11:18:27.354Z,7.65
2023-04-08T11:20:54.723Z,10.15
2023-04-08T11:23:22.901Z,7.13
2023-04-08T11:25:50.754Z,6.47
2023-04-08T11:28:18.174Z,6.93
2023-04-08T11:30:45.120Z,6.90
2023-04-08T11:33:13.412Z,7.75
2023-04-08T11:35:41.699Z,6.75
2023-04-08T11:38:12.272Z,7.63
2023-04-08T11:40:39.073Z,7.90
2023-04-08T11:43:15.362Z,8.27
2023-04-08T11:45:42.870Z,6.85
2023-04-08T11:48:14.704Z,9.00
2023-04-08T11:50:42.226Z,6.50
2023-04-08T11:53:19.701Z,6.30
2023-04-08T11:55:47.241Z,8.57
2023-04-08T11:58:14.438Z,5.85
2023-04-08T12:00:41.621Z,7.80
2023-04-08T12:03:08.646Z,8.70
2023-04-08T12:05:35.810Z,7.40
2023-04-08T12:08:03.479Z,7.22
2023-04-08T12:10:30.764Z,8.20
2023-04-08T12:12:57.495Z,6.72
2023-04-08T12:15:24.282Z,6.80
2023-04-08T12:17:51.093Z,7.85
2023-04-08T12:20:18.522Z,6.93
2023-04-08T12:22:45.510Z,8.98
2023-04-08T12:25:12.352Z,7.95
2023-04-08T12:27:39.162Z,8.27
2023-04-08T12:30:06.398Z,7.10
2023-04-08T12:32:33.604Z,7.60
2023-04-08T12:35:00.521Z,8.55
2023-04-08T12:37:28.574Z,7.55
2023-04-08T12:39:55.544Z,7.32
2023-04-08T12:42:22.276Z,7.50
2023-04-08T12:44:49.019Z,6.78
2023-04-08T12:47:17.317Z,7.63
2023-04-08T12:49:49.324Z,7.97
2023-04-08T12:52:17.491Z,7.80
2023-04-08T12:54:44.743Z,8.63
2023-04-08T12:57:11.799Z,7.63
2023-04-08T12:59:39.882Z,8.77
2023-04-08T13:02:07.938Z,7.57
2023-04-08T13:04:35.625Z,9.80
2023-04-08T13:07:02.440Z,8.98
2023-04-08T13:09:30.810Z,7.07
2023-04-08T13:11:58.261Z,9.43
2023-04-08T13:14:25.798Z,7.45
2023-04-08T13:16:53.243Z,8.13
2023-04-08T13:19:20.185Z,6.60
2023-04-08T13:21:46.914Z,7.05
2023-04-08T13:24:13.704Z,8.25
2023-04-08T13:26:41.081Z,9.65
2023-04-08T13:29:07.814Z,7.82
2023-04-08T13:31:34.685Z,7.75
2023-04-08T13:34:01.690Z,5.70
2023-04-08T13:36:29.157Z,6.70
2023-04-08T13:38:56.762Z,17.17
2023-04-08T13:41:25.286Z,7.88
2023-04-08T13:43:52.161Z,6.15
2023-04-08T13:46:19.005Z,12.32
2023-04-08T13:48:46.267Z,8.68
2023-04-08T13:51:13.107Z,8.23
2023-04-08T13:53:39.908Z,7.72
2023-04-08T13:56:06.952Z,5.78
2023-04-08T13:58:33.754Z,7.18
2023-04-08T14:01:00.519Z,7.53
2023-04-08T14:03:28.053Z,8.95
2023-04-08T14:05:55.245Z,9.23
2023-04-08T14:08:25.422Z,7.35
2023-04-08T14:10:53.126Z,6.63
2023-04-08T14:13:19.853Z,10.70
2023-04-08T14:15:47.287Z,6.75
2023-04-08T14:18:17.373Z,6.95
2023-04-08T14:20:44.327Z,7.32
2023-04-08T14:23:13.338Z,5.65
2023-04-08T14:25:40.770Z,6.07
2023-04-08T14:28:07.940Z,8.20
2023-04-08T14:30:36.108Z,7.68
2023-04-08T14:33:05.086Z,7.93
2023-04-08T14:35:32.623Z,6.15
2023-04-08T14:37:59.927Z,6.75
2023-04-08T14:40:26.718Z,6.45
2023-04-08T14:42:53.802Z,6.93
2023-04-08T14:45:20.647Z,7.40
2023-04-08T14:47:48.216Z,7.97
2023-04-08T14:50:15.987Z,6.13
2023-04-08T14:52:45.243Z,6.43
2023-04-08T14:55:12.228Z,7.55
2023-04-08T14:57:39.041Z,7.78
2023-04-08T15:00:07.578Z,7.90
2023-04-08T15:02:34.399Z,7.57
2023-04-08T15:05:01.737Z,6.88
2023-04-08T15:07:28.926Z,5.97
2023-04-08T15:09:56.862Z,7.95
2023-04-08T15:12:24.448Z,7.38
2023-04-08T15:14:51.216Z,7.55
2023-04-08T15:17:17.930Z,7.45
2023-04-08T15:19:44.799Z,7.70
2023-04-08T15:22:12.150Z,7.40
2023-04-08T15:24:39.073Z,7.90
2023-04-08T15:27:05.942Z,8.18
2023-04-08T15:29:32.670Z,7.55
2023-04-08T15:31:59.698Z,8.85
2023-04-08T15:34:27.073Z,8.43
2023-04-08T15:36:54.145Z,8.00
2023-04-08T15:39:21.160Z,7.65
2023-04-08T15:41:48.719Z,9.68
2023-04-08T15:44:15.979Z,9.93
2023-04-08T15:46:42.984Z,8.23
2023-04-08T15:49:09.823Z,9.35
2023-04-08T15:51:36.928Z,8.85
2023-04-08T15:54:03.658Z,9.63
2023-04-08T15:56:30.524Z,9.73
2023-04-08T15:58:57.379Z,9.60
2023-04-08T16:01:24.293Z,9.32
2023-04-08T16:03:51.646Z,11.18
2023-04-08T16:06:18.477Z,10.13
2023-04-08T16:08:46.868Z,9.10
2023-04-08T16:11:13.724Z,34.35
2023-04-08T16:13:42.259Z,8.48
2023-04-08T16:16:09.248Z,10.00
2023-04-08T16:18:36.054Z,7.45
2023-04-08T16:21:05.656Z,7.25
2023-04-08T16:23:34.010Z,7.25
2023-04-08T16:26:01.697Z,6.97
2023-04-08T16:28:28.751Z,7.50
2023-04-08T16:30:56.007Z,7.13
2023-04-08T16:33:29.563Z,8.23
2023-04-08T16:35:57.081Z,7.78
2023-04-08T16:38:24.802Z,6.82
2023-04-08T16:40:52.474Z,6.95
2023-04-08T16:43:19.417Z,6.85
2023-04-08T16:45:46.547Z,6.97
2023-04-08T16:48:13.561Z,6.97
2023-04-08T16:50:40.402Z,7.88
2023-04-08T16:53:07.117Z,6.60
2023-04-08T16:55:35.546Z,7.35
2023-04-08T16:58:03.002Z,6.75
2023-04-08T17:00:31.254Z,6.85
2023-04-08T17:02:59.087Z,7.35
2023-04-08T17:05:27.230Z,6.72
2023-04-08T17:07:56.375Z,6.55
2023-04-08T17:10:23.378Z,7.22
2023-04-08T17:12:50.322Z,6.82
2023-04-08T17:15:17.070Z,6.70
2023-04-08T17:17:44.381Z,6.93
2023-04-08T17:20:11.844Z,8.10
2023-04-08T17:22:38.656Z,7.22
2023-04-08T17:25:06.585Z,8.15
2023-04-08T17:27:33.377Z,7.13
2023-04-08T17:30:00.434Z,7.97
2023-04-08T17:32:27.544Z,7.85
2023-04-08T17:34:54.638Z,7.63
2023-04-08T17:37:21.453Z,8.40
2023-04-08T17:39:48.221Z,7.65
2023-04-08T17:42:14.952Z,6.93
2023-04-08T17:44:42.519Z,7.30
2023-04-08T17:47:09.269Z,7.57
2023-04-08T17:49:36.142Z,8.15
2023-04-08T17:52:03.393Z,7.97
2023-04-08T17:54:32.998Z,8.90
2023-04-08T17:56:59.909Z,7.30
2023-04-08T17:59:26.823Z,8.20
2023-04-08T18:01:54.052Z,8.70
2023-04-08T18:04:21.691Z,8.20
2023-04-08T18:06:48.704Z,8.00
2023-04-08T18:09:15.836Z,9.45
2023-04-08T18:11:42.562Z,8.93
2023-04-08T18:14:09.761Z,10.38
2023-04-08T18:16:37.206Z,9.15
2023-04-08T18:19:04.532Z,8.85
2023-04-08T18:21:33.019Z,10.27
2023-04-08T18:24:00.278Z,8.60
2023-04-08T18:26:28.260Z,9.48
2023-04-08T18:28:55.170Z,9.38
2023-04-08T18:31:22.244Z,8.27
2023-04-08T18:33:49.616Z,8.13
2023-04-08T18:36:17.655Z,8.23
2023-04-08T18:38:44.759Z,8.07
2023-04-08T18:41:13.206Z,8.57
2023-04-08T18:43:40.562Z,8.25
2023-04-08T18:46:07.393Z,9.35
2023-04-08T18:48:34.208Z,9.05
2023-04-08T18:51:01.888Z,9.40
2023-04-08T18:53:28.902Z,10.35
2023-04-08T18:55:56.234Z,11.07
2023-04-08T18:58:22.981Z,8.63
2023-04-08T19:00:49.789Z,10.15
2023-04-08T19:03:17.032Z,9.65
2023-04-08T19:05:43.931Z,9.77
2023-04-08T19:08:10.976Z,8.98
2023-04-08T19:10:38.633Z,10.77
2023-04-08T19:13:05.367Z,10.32
2023-04-08T19:15:32.176Z,11.07
2023-04-08T19:17:59.101Z,11.85
2023-04-08T19:20:27.126Z,12.07
2023-04-08T19:22:55.777Z,11.13
2023-04-08T19:25:22.597Z,10.60
2023-04-08T19:27:49.772Z,12.07
2023-04-08T19:30:16.592Z,14.98
2023-04-08T19:32:43.397Z,13.38
2023-04-08T19:35:13.683Z,12.10
2023-04-08T19:37:41.336Z,11.45
2023-04-08T19:40:09.039Z,11.73
2023-04-08T19:42:36.514Z,13.30
2023-04-08T19:45:05.146Z,12.23
2023-04-08T19:47:32.049Z,11.85
2023-04-08T19:49:59.765Z,13.30
2023-04-08T19:52:26.817Z,12.55
2023-04-08T19:54:53.676Z,11.68
2023-04-08T19:57:21.015Z,11.07
2023-04-08T19:59:48.722Z,10.63
2023-04-08T20:02:15.849Z,10.90
2023-04-08T20:04:42.816Z,11.98
2023-04-08T20:07:09.688Z,13.35
2023-04-08T20:09:36.488Z,11.65
2023-04-08T20:12:05.753Z,10.07
2023-04-08T20:14:35.762Z,11.52
2023-04-08T20:17:02.735Z,13.02
2023-04-08T20:19:29.563Z,10.38
2023-04-08T20:21:57.336Z,10.60
2023-04-08T20:24:24.278Z,11.80
2023-04-08T20:26:52.236Z,13.20
2023-04-08T20:29:18.947Z,13.05
2023-04-08T20:31:45.901Z,13.05
2023-04-08T20:34:12.928Z,12.27
2023-04-08T20:36:41.105Z,10.48
2023-04-08T20:39:11.061Z,12.23
2023-04-08T20:41:38.265Z,9.05
2023-04-08T20:44:10.306Z,12.57
2023-04-08T20:46:37.895Z,9.95
2023-04-08T20:49:05.189Z,10.20
2023-04-08T20:51:35.622Z,10.85
2023-04-08T20:54:03.494Z,11.48
2023-04-08T20:56:30.406Z,12.32
2023-04-08T20:58:59.578Z,11.65
2023-04-08T21:01:27.498Z,14.77
2023-04-08T21:03:54.754Z,13.88
2023-04-08T21:06:22.145Z,12.15
2023-04-08T21:08:50.184Z,13.50
2023-04-08T21:11:17.336Z,11.68
2023-04-08T21:13:46.605Z,11.38
2023-04-08T21:16:14.940Z,11.00
2023-04-08T21:18:41.832Z,11.02
2023-04-08T21:21:11.107Z,9.30
2023-04-08T21:23:37.840Z,12.20
2023-04-08T21:26:11.960Z,10.13
2023-04-08T21:28:39.957Z,10.90
2023-04-08T21:31:13.600Z,11.00
2023-04-08T21:33:40.552Z,11.45
2023-04-08T21:36:08.356Z,8.98
2023-04-08T21:38:35.374Z,11.45
2023-04-08T21:41:02.179Z,10.73
2023-04-08T21:43:29.197Z,10.50
2023-04-08T21:45:56.092Z,11.27
2023-04-08T21:48:23.471Z,11.88
2023-04-08T21:50:50.337Z,11.75
2023-04-08T21:53:17.484Z,11.95
2023-04-08T21:55:44.841Z,12.82
2023-04-08T21:58:12.357Z,12.68
2023-04-08T22:00:39.283Z,12.48
2023-04-08T22:03:07.388Z,14.02
2023-04-08T22:05:34.529Z,14.73
2023-04-08T22:08:02.157Z,14.25
2023-04-08T22:10:29.266Z,12.30
2023-04-08T22:12:56.040Z,13.52
2023-04-08T22:15:23.110Z,12.25
2023-04-08T22:17:49.889Z,11.50
2023-04-08T22:20:16.715Z,12.63
2023-04-08T22:22:43.435Z,11.35
2023-04-08T22:25:10.557Z,10.98
2023-04-08T22:27:38.096Z,12.15
2023-04-08T22:30:06.937Z,11.80
2023-04-08T22:32:35.021Z,13.52
2023-04-08T22:35:02.034Z,11.30
2023-04-08T22:37:31.331Z,14.13
2023-04-08T22:40:02.522Z,14.15
2023-04-08T22:42:29.743Z,13.20
2023-04-08T22:44:56.998Z,15.98
2023-04-08T22:47:23.773Z,14.60
2023-04-08T22:49:50.561Z,12.80
2023-04-08T22:52:17.425Z,12.40
2023-04-08T22:54:44.143Z,15.00
2023-04-08T22:57:10.872Z,12.32
2023-04-08T22:59:37.592Z,15.48
2023-04-08T23:02:04.424Z,11.50
2023-04-08T23:04:31.563Z,11.65
2023-04-08T23:06:58.333Z,12.30
2023-04-08T23:09:27.037Z,9.23
2023-04-08T23:11:54.429Z,12.05
2023-04-08T23:14:21.169Z,14.20
2023-04-08T23:16:47.880Z,14.20
2023-04-08T23:19:14.687Z,12.57
2023-04-08T23:21:41.585Z,13.45
2023-04-08T23:24:08.324Z,13.27
2023-04-08T23:26:35.079Z,15.57
2023-04-08T23:29:02.002Z,12.95
2023-04-08T23:31:28.844Z,14.32
2023-04-08T23:33:56.378Z,13.75
2023-04-08T23:36:23.101Z,12.45
2023-04-08T23:38:50.766Z,12.48
2023-04-08T23:41:17.813Z,13.60
2023-04-08T23:43:46.247Z,13.07
2023-04-08T23:46:13.064Z,12.30
2023-04-08T23:48:39.911Z,13.60
2023-04-08T23:51:06.821Z,12.85
2023-04-08T23:53:33.563Z,14.65
2023-04-08T23:56:07.310Z,13.93
2023-04-08T23:58:34.729Z,13.50
